Time;durP1;ratioP1;P1;durP2;ratioP2;P2;SDS_P1;SDS_P2;PMS_P1;PMS_P2;Temp;Humidity;BMP_temperature;BMP_pressure;BME280_temperature;BME280_humidity;BME280_pressure;Samples;Min_cycle;Max_cycle;Signal;HPM_P1;HPM_P2
2021/10/07 00:02:40;;;;;;;;;;;12.80;99.90;;;;;;6119025;23;20018;-84
2021/10/07 00:09:08;;;;;;;7.20;2.25;;;12.90;99.90;;;;;;6225179;23;20028;-80
2021/10/07 00:11:43;;;;;;;5.88;2.35;;;12.90;99.90;;;;;;6176187;23;20400;-82
2021/10/07 00:15:27;;;;;;;;;;;;;;;;;;;;;
2021/10/07 00:18:34;;;;;;;;;;;;;;;;;;;;;
2021/10/07 00:22:00;;;;;;;14.15;3.13;;;13.00;99.90;;;;;;6104833;23;20028;-79
2021/10/07 00:24:36;;;;;;;6.47;2.65;;;13.10;99.90;;;;;;6086065;23;20117;-82
2021/10/07 00:27:49;;;;;;;6.15;2.15;;;13.10;99.90;;;;;;6096414;23;20021;-79
2021/10/07 00:30:24;;;;;;;4.78;2.30;;;13.10;99.90;;;;;;6113361;23;20029;-82
2021/10/07 00:33:28;;;;;;;6.18;2.55;;;12.90;99.90;;;;;;6114983;23;20030;-83
2021/10/07 00:45:00;;;;;;;;;;;;;;;;;;;;;
2021/10/07 00:48:09;;;;;;;21.05;2.78;;;13.30;99.90;;;;;;6119603;23;20096;-84
2021/10/07 00:51:19;;;;;;;4.13;1.90;;;13.40;99.90;;;;;;6115590;23;20022;-83
2021/10/07 00:53:54;;;;;;;15.10;2.50;;;13.30;99.90;;;;;;6086518;23;20062;-84
2021/10/07 01:00:44;;;;;;;7.82;2.33;;;13.30;99.90;;;;;;6187987;23;20371;-81
2021/10/07 01:07:14;;;;;;;;;;;;;;;;;;;;;
2021/10/07 01:10:55;;;;;;;;;;;;;;;;;;;;;
2021/10/07 01:14:46;;;;;;;;;;;;;;;;;;;;;
2021/10/07 01:18:20;;;;;;;7.38;2.10;;;13.50;99.90;;;;;;6021573;23;20020;-87
2021/10/07 01:20:53;;;;;;;8.18;2.72;;;13.50;99.90;;;;;;6027770;23;20029;-82
2021/10/07 01:23:32;;;;;;;8.68;2.40;;;13.20;99.90;;;;;;6052491;23;20059;-83
2021/10/07 01:27:28;;;;;;;;;;;;;;;;;;;;;
2021/10/07 01:31:15;;;;;;;;;;;;;;;;;;;;;
2021/10/07 01:33:59;;;;;;;7.82;3.20;;;13.50;99.90;;;;;;6190173;23;20521;-83
2021/10/07 01:36:39;;;;;;;8.55;2.38;;;13.50;99.90;;;;;;6197734;23;20017;-83
2021/10/07 01:39:10;;;;;;;10.10;3.00;;;13.50;99.90;;;;;;6146047;23;20024;-81
2021/10/07 01:42:19;;;;;;;9.48;4.88;;;13.50;99.90;;;;;;6182208;23;20017;-81
2021/10/07 01:45:04;;;;;;;;;;;;;;;;;;;;;
2021/10/07 01:48:15;;;;;;;7.05;2.97;;;13.60;99.90;;;;;;6182634;23;20017;-84
2021/10/07 01:51:26;;;;;;;6.43;3.00;;;13.50;99.90;;;;;;6156608;23;20031;-82
2021/10/07 01:54:27;;;;;;;;;;;13.50;99.90;;;;;;6170888;23;20031;-83
2021/10/07 02:00:20;;;;;;;8.50;3.00;;;13.50;99.90;;;;;;6170503;23;19916;-83
2021/10/07 02:03:45;;;;;;;15.48;2.55;;;13.60;99.90;;;;;;6168031;23;20024;-84
2021/10/07 02:07:24;;;;;;;;;;;;;;;;;;;;;
2021/10/07 02:11:01;;;;;;;;;;;;;;;;;;;;;
2021/10/07 02:20:53;;;;;;;11.20;2.92;;;13.50;99.90;;;;;;6081240;23;20022;-83
2021/10/07 02:23:34;;;;;;;6.30;2.50;;;13.50;99.90;;;;;;6057736;23;20090;-83
2021/10/07 02:27:05;;;;;;;13.80;2.65;;;13.40;99.90;;;;;;5948647;24;20017;-84
2021/10/07 02:30:45;;;;;;;12.73;4.03;;;13.60;99.90;;;;;;5937976;24;20043;-83
2021/10/07 02:34:21;;;;;;;;;;;;;;;;;;;;;
2021/10/07 02:37:14;;;;;;;8.15;2.95;;;13.60;99.90;;;;;;6071963;23;20023;-83
2021/10/07 02:44:39;;;;;;;7.57;3.13;;;13.20;99.90;;;;;;5892456;24;20025;-83
2021/10/07 02:48:01;;;;;;;10.05;2.35;;;13.60;99.90;;;;;;5983320;23;20019;-81
2021/10/07 02:50:41;;;;;;;12.32;2.65;;;13.50;99.90;;;;;;6125201;23;20021;-82
2021/10/07 02:54:24;;;;;;;;;;;;;;;;;;;;;
2021/10/07 02:58:23;;;;;;;;;;;;;;;;;;;;;
2021/10/07 03:02:23;;;;;;;;;;;;;;;;;;;;;
2021/10/07 03:10:23;;;;;;;;;;;;;;;;;;;;;
2021/10/07 03:14:02;;;;;;;7.07;3.25;;;13.60;99.90;;;;;;5930298;24;20031;-83
2021/10/07 03:17:43;;;;;;;;;;;;;;;;;;;;;
2021/10/07 03:21:59;;;;;;;;;;;;;;;;;;;;;
2021/10/07 03:30:16;;;;;;;;;;;;;;;;;;;;;
2021/10/07 03:34:51;;;;;;;14.18;3.63;;;13.40;99.90;;;;;;5829805;24;20545;-83
2021/10/07 03:38:25;;;;;;;;;;;;;;;;;;;;;
2021/10/07 03:41:39;;;;;;;10.73;3.25;;;13.40;99.90;;;;;;5853083;24;20029;-83
2021/10/07 03:45:08;;;;;;;;;;;;;;;;;;;;;
2021/10/07 03:51:53;;;;;;;7.53;2.30;;;13.40;99.90;;;;;;5797121;24;20088;-83
2021/10/07 03:54:23;;;;;;;12.18;2.55;;;13.50;99.90;;;;;;5818133;24;20006;-83
2021/10/07 04:05:32;;;;;;;9.60;2.75;;;14.60;99.90;;;;;;4888494;27;5213615;-93
2021/10/07 04:08:04;;;;;;;;;;;13.60;99.90;;;;;;5024644;28;20045;-91
2021/10/07 04:10:34;;;;;;;9.80;2.08;;;13.60;99.90;;;;;;5000429;28;19936;-89
2021/10/07 04:13:05;;;;;;;5.78;2.20;;;13.60;99.90;;;;;;5014444;28;20062;-91
2021/10/07 04:15:39;;;;;;;17.65;3.95;;;13.60;99.90;;;;;;5012739;28;20110;-90
2021/10/07 04:22:12;;;;;;;11.02;3.20;;;13.70;99.90;;;;;;4961384;26;20674;-86
2021/10/07 04:26:06;;;;;;;;;;;;;;;;;;;;;
2021/10/07 04:30:38;;;;;;;;;;;;;;;;;;;;;
2021/10/07 04:34:58;;;;;;;;;;;;;;;;;;;;;
2021/10/07 04:38:25;;;;;;;11.00;2.65;;;12.60;99.90;;;;;;4893863;29;20064;-85
2021/10/07 04:41:48;;;;;;;;;;;;;;;;;;;;;
2021/10/07 04:49:54;;;;;;;8.93;2.65;;;13.70;99.90;;;;;;4829716;29;20054;-87
2021/10/07 04:54:12;;;;;;;7.82;2.95;;;15.00;99.90;;;;;;4826632;29;20073;-85
2021/10/07 04:57:06;;;;;;;;;;;;;;;;;;;;;
2021/10/07 05:00:16;;;;;;;;;;;;;;;;;;;;;
2021/10/07 05:04:15;;;;;;;10.70;3.90;;;13.80;99.90;;;;;;4810765;29;20059;-85
2021/10/07 05:07:30;;;;;;;17.02;3.85;;;13.90;99.90;;;;;;4814392;29;20088;-81
2021/10/07 05:11:00;;;;;;;11.10;3.28;;;13.90;99.90;;;;;;4811623;29;20046;-84
2021/10/07 05:15:04;;;;;;;;;;;;;;;;;;;;;
2021/10/07 05:18:49;;;;;;;9.50;3.07;;;14.30;99.90;;;;;;4780046;29;20047;-84
2021/10/07 05:22:17;;;;;;;;;;;;;;;;;;;;;
2021/10/07 05:24:59;;;;;;;19.63;4.10;;;14.00;99.90;;;;;;4944768;29;20055;-82
2021/10/07 05:27:37;;;;;;;17.35;5.40;;;14.10;99.90;;;;;;4944196;29;20055;-83
2021/10/07 05:30:50;;;;;;;20.75;7.18;;;13.90;99.90;;;;;;4920020;29;20060;-83
2021/10/07 05:34:00;;;;;;;18.80;4.78;;;14.00;99.90;;;;;;4914942;29;20880;-82
2021/10/07 05:36:52;;;;;;;;;;;;;;;;;;;;;
2021/10/07 05:40:14;;;;;;;26.35;5.35;;;14.00;99.90;;;;;;4948164;29;20043;-82
2021/10/07 05:42:53;;;;;;;22.23;5.55;;;14.00;99.90;;;;;;4953366;29;20060;-82
2021/10/07 05:46:36;;;;;;;19.13;5.50;;;14.00;99.90;;;;;;4917817;29;20051;-83
2021/10/07 05:49:29;;;;;;;14.43;4.63;;;14.00;99.90;;;;;;4944100;29;20052;-83
2021/10/07 05:52:48;;;;;;;;;;;;;;;;;;;;;
2021/10/07 05:59:41;;;;;;;25.23;5.15;;;13.10;99.90;;;;;;4919048;29;20052;-85
2021/10/07 06:02:31;;;;;;;;;;;13.60;99.90;;;;;;4889477;29;20064;-86
2021/10/07 06:05:47;;;;;;;18.45;4.97;;;14.20;99.90;;;;;;4889905;29;19923;-86
2021/10/07 06:08:22;;;;;;;20.13;4.63;;;14.20;99.90;;;;;;4919908;29;20049;-86
2021/10/07 06:11:00;;;;;;;22.13;4.57;;;14.20;99.90;;;;;;4922637;29;20059;-83
2021/10/07 06:13:59;;;;;;;15.93;4.82;;;14.20;99.90;;;;;;4919237;29;20052;-84
2021/10/07 06:16:38;;;;;;;21.23;5.63;;;14.30;99.90;;;;;;4950934;29;20055;-85
2021/10/07 06:23:42;;;;;;;20.10;6.20;;;14.40;99.90;;;;;;4976054;28;20070;-83
2021/10/07 06:26:59;;;;;;;14.48;4.70;;;14.30;99.90;;;;;;4986570;28;20053;-83
2021/10/07 06:30:40;;;;;;;20.20;6.22;;;14.30;99.90;;;;;;4868999;29;20046;-83
2021/10/07 06:42:45;;;;;;;20.25;6.82;;;14.40;99.90;;;;;;4872230;29;20047;-87
2021/10/07 06:45:28;;;;;;;13.75;5.22;;;14.40;99.90;;;;;;4854154;29;20058;-86
2021/10/07 06:48:15;;;;;;;17.20;4.97;;;14.50;99.90;;;;;;4899675;29;20056;-88
2021/10/07 06:50:51;;;;;;;;;;;13.20;99.90;;;;;;4909550;29;20298;-90
2021/10/07 06:53:53;;;;;;;19.80;4.85;;;14.50;99.90;;;;;;4927449;29;19927;-87
2021/10/07 06:57:28;;;;;;;;;;;;;;;;;;;;;
2021/10/07 07:00:44;;;;;;;;;;;;;;;;;;;;;
2021/10/07 07:04:50;;;;;;;12.50;5.40;;;14.30;99.90;;;;;;4945973;29;20069;-85
2021/10/07 07:07:21;;;;;;;18.27;5.30;;;14.60;99.90;;;;;;4903752;29;20434;-87
2021/10/07 07:10:46;;;;;;;;;;;;;;;;;;;;;
2021/10/07 07:13:31;;;;;;;16.98;6.18;;;15.80;99.90;;;;;;4943620;29;20062;-84
2021/10/07 07:16:05;;;;;;;12.18;5.47;;;14.90;99.90;;;;;;4912157;29;20075;-83
2021/10/07 07:19:17;;;;;;;25.27;6.53;;;15.00;99.90;;;;;;4940226;29;20054;-84
2021/10/07 07:21:52;;;;;;;15.02;5.60;;;14.80;99.90;;;;;;4943397;29;20055;-83
2021/10/07 07:24:28;;;;;;;13.48;5.95;;;15.10;99.90;;;;;;4924895;29;20055;-88
2021/10/07 07:27:17;;;;;;;12.18;5.43;;;15.10;99.90;;;;;;4945184;29;20052;-83
2021/10/07 07:30:24;;;;;;;19.33;5.72;;;15.10;99.90;;;;;;4944463;29;20051;-86
2021/10/07 07:33:24;;;;;;;15.70;5.32;;;14.50;99.90;;;;;;4943677;29;20047;-86
2021/10/07 07:36:32;;;;;;;;;;;;;;;;;;;;;
2021/10/07 07:40:43;;;;;;;;;;;;;;;;;;;;;
2021/10/07 07:44:36;;;;;;;21.17;6.10;;;15.40;99.90;;;;;;4884888;29;20045;-85
2021/10/07 07:48:46;;;;;;;18.98;6.43;;;15.50;99.90;;;;;;4864809;29;20064;-85
2021/10/07 07:51:56;;;;;;;20.42;6.43;;;15.40;99.90;;;;;;4870700;29;20052;-84
2021/10/07 07:54:28;;;;;;;;;;;15.50;99.90;;;;;;4867938;29;20068;-87
2021/10/07 07:57:11;;;;;;;18.63;6.57;;;16.50;99.90;;;;;;4883433;29;20016;-83
2021/10/07 08:00:18;;;;;;;;;;;;;;;;;;;;;
2021/10/07 08:03:27;;;;;;;;;;;;;;;;;;;;;
2021/10/07 08:06:50;;;;;;;;;;;;;;;;;;;;;
2021/10/07 08:10:18;;;;;;;16.60;5.95;;;15.70;99.90;;;;;;4946392;28;20053;-86
2021/10/07 08:13:19;;;;;;;13.68;6.32;;;15.80;99.90;;;;;;4960185;28;20063;-86
2021/10/07 08:17:08;;;;;;;;;;;;;;;;;;;;;
2021/10/07 08:23:37;;;;;;;16.63;4.53;;;15.90;99.90;;;;;;4914112;29;19926;-83
2021/10/07 08:26:39;;;;;;;8.48;3.53;;;16.00;99.90;;;;;;4900281;29;20057;-84
2021/10/07 08:30:12;;;;;;;10.85;4.00;;;16.00;99.90;;;;;;4832905;29;20057;-85
2021/10/07 08:32:47;;;;;;;13.50;4.93;;;16.10;99.90;;;;;;4833607;29;20060;-83
2021/10/07 08:35:25;;;;;;;9.25;3.85;;;16.20;99.90;;;;;;4832463;29;20746;-85
2021/10/07 08:38:34;;;;;;;9.85;3.30;;;16.30;99.90;;;;;;4847663;29;20076;-83
2021/10/07 08:41:55;;;;;;;;;;;;;;;;;;;;;
2021/10/07 08:45:38;;;;;;;12.52;4.55;;;16.30;99.90;;;;;;4818909;29;20065;-84
2021/10/07 08:49:35;;;;;;;;;;;;;;;;;;;;;
2021/10/07 08:52:21;;;;;;;12.27;2.72;;;16.50;99.90;;;;;;4845419;29;20083;-84
2021/10/07 08:59:14;;;;;;;6.68;2.28;;;16.60;99.90;;;;;;4956088;28;20051;-86
2021/10/07 09:02:52;;;;;;;3.40;2.38;;;17.00;99.90;;;;;;4924316;29;20052;-85
2021/10/07 09:05:34;;;;;;;5.20;2.33;;;15.70;99.90;;;;;;4906638;29;20060;-85
2021/10/07 09:09:13;;;;;;;11.35;4.18;;;16.90;99.90;;;;;;4876878;29;20138;-86
2021/10/07 09:12:15;;;;;;;6.32;1.90;;;16.90;99.90;;;;;;4907435;29;20051;-86
2021/10/07 09:15:12;;;;;;;5.50;2.30;;;17.00;99.90;;;;;;4911341;29;20063;-84
2021/10/07 09:18:37;;;;;;;7.22;2.22;;;17.10;99.90;;;;;;4876391;29;20067;-85
2021/10/07 09:21:09;;;;;;;7.25;2.78;;;16.10;99.90;;;;;;4874919;29;20061;-85
2021/10/07 09:23:40;;;;;;;7.67;2.40;;;17.20;99.90;;;;;;4861963;29;20090;-86
2021/10/07 09:26:12;;;;;;;6.30;3.08;;;17.20;99.90;;;;;;4834061;29;20081;-86
2021/10/07 09:29:24;;;;;;;6.38;2.67;;;17.20;99.90;;;;;;4871327;29;20053;-87
2021/10/07 09:32:47;;;;;;;7.38;2.78;;;17.20;99.90;;;;;;4914482;29;20067;-88
2021/10/07 09:36:06;;;;;;;9.85;2.85;;;17.30;99.90;;;;;;4949049;28;20063;-88
2021/10/07 09:39:39;;;;;;;10.27;2.70;;;17.60;99.90;;;;;;4962824;29;20055;-84
2021/10/07 09:42:57;;;;;;;8.25;3.13;;;17.40;99.90;;;;;;4969375;28;20054;-85
2021/10/07 09:45:40;;;;;;;8.27;2.97;;;17.50;99.90;;;;;;4961264;29;20053;-85
2021/10/07 09:48:53;;;;;;;5.78;2.78;;;17.70;99.90;;;;;;4973443;28;20063;-85
2021/10/07 09:51:39;;;;;;;4.50;2.60;;;17.70;99.90;;;;;;4965942;29;20043;-82
2021/10/07 09:59:14;;;;;;;;;;;;;;;;;;;;;
2021/10/07 10:03:38;;;;;;;;;;;17.70;99.90;;;;;;4904281;29;20061;-89
2021/10/07 10:06:34;;;;;;;4.28;2.70;;;17.70;99.90;;;;;;4889657;29;20027;-86
2021/10/07 10:09:12;;;;;;;;;;;17.80;99.90;;;;;;4907275;29;20337;-88
2021/10/07 10:11:42;;;;;;;9.15;2.85;;;17.80;99.90;;;;;;4891007;29;19931;-84
2021/10/07 10:14:14;;;;;;;8.02;3.17;;;16.90;99.90;;;;;;4902825;29;20252;-87
2021/10/07 10:21:14;;;;;;;10.32;3.60;;;17.90;99.90;;;;;;4971859;28;20038;-86
2021/10/07 10:23:52;;;;;;;7.85;2.90;;;17.90;99.90;;;;;;4962302;28;20054;-85
2021/10/07 10:26:29;;;;;;;9.60;3.05;;;17.80;99.90;;;;;;4975654;28;20055;-85
2021/10/07 10:29:20;;;;;;;7.82;3.10;;;17.80;99.90;;;;;;4946615;28;20057;-87
2021/10/07 10:31:53;;;;;;;8.07;2.97;;;17.80;99.90;;;;;;4957466;28;20061;-86
2021/10/07 10:34:25;;;;;;;9.60;3.38;;;17.90;99.90;;;;;;4963249;28;20054;-87
2021/10/07 10:36:56;;;;;;;9.88;3.67;;;17.90;99.90;;;;;;4947884;28;20047;-86
2021/10/07 10:39:39;;;;;;;9.65;3.95;;;17.90;99.90;;;;;;4961323;28;20050;-84
2021/10/07 10:42:30;;;;;;;8.65;3.58;;;18.00;99.90;;;;;;4977135;28;20039;-86
2021/10/07 10:45:18;;;;;;;10.63;3.17;;;18.00;99.90;;;;;;4979049;28;20054;-85
2021/10/07 10:49:03;;;;;;;30.25;4.75;;;18.10;99.90;;;;;;4983576;28;20062;-85
2021/10/07 10:55:45;;;;;;;12.43;3.40;;;18.20;99.90;;;;;;4920508;29;20054;-85
2021/10/07 10:58:44;;;;;;;8.90;4.45;;;18.20;99.90;;;;;;4924617;29;20048;-85
2021/10/07 11:14:51;;;;;;;19.95;5.82;;;18.20;99.90;;;;;;4866373;29;20387;-85
2021/10/07 11:18:38;;;;;;;11.95;3.75;;;18.40;99.90;;;;;;4763701;29;20169;-87
2021/10/07 11:22:28;;;;;;;;;;;;;;;;;;;;;
2021/10/07 11:34:41;;;;;;;15.38;5.40;;;18.50;99.90;;;;;;4821432;29;20049;-84
2021/10/07 11:41:38;;;;;;;14.55;4.35;;;18.50;99.90;;;;;;4837209;29;20062;-84
2021/10/07 11:45:19;;;;;;;13.52;4.93;;;18.50;99.90;;;;;;4833777;29;20191;-86
2021/10/07 11:47:56;;;;;;;15.95;5.65;;;18.50;99.90;;;;;;4907624;29;20064;-81
2021/10/07 11:50:29;;;;;;;15.75;5.00;;;18.60;99.90;;;;;;4924060;29;20060;-83
2021/10/07 11:53:25;;;;;;;13.35;5.35;;;18.60;99.90;;;;;;4973965;28;20049;-83
2021/10/07 11:57:00;;;;;;;18.45;5.60;;;18.60;99.90;;;;;;4982323;28;20049;-85
2021/10/07 12:01:06;;;;;;;14.93;4.88;;;18.60;99.90;;;;;;4924829;28;20054;-84
2021/10/07 12:03:42;;;;;;;14.27;5.63;;;19.50;99.90;;;;;;4943590;28;20065;-85
2021/10/07 12:06:15;;;;;;;16.38;5.03;;;18.60;99.90;;;;;;4976682;28;20047;-87
2021/10/07 12:08:48;;;;;;;15.50;5.28;;;18.70;99.90;;;;;;4950204;28;20504;-87
2021/10/07 12:12:05;;;;;;;16.80;4.80;;;18.70;99.90;;;;;;4962946;28;20047;-83
2021/10/07 12:14:56;;;;;;;23.05;4.97;;;18.80;99.90;;;;;;4982533;28;20051;-83
2021/10/07 12:17:30;;;;;;;14.65;4.53;;;18.80;99.90;;;;;;4960787;28;20055;-82
2021/10/07 12:19:59;;;;;;;18.00;5.13;;;18.80;99.90;;;;;;4986083;28;20492;-82
2021/10/07 12:23:16;;;;;;;20.65;6.05;;;18.90;99.90;;;;;;4952828;28;20047;-85
2021/10/07 12:26:40;;;;;;;13.20;4.18;;;18.80;99.90;;;;;;4957138;28;20061;-85
2021/10/07 12:29:51;;;;;;;20.15;6.90;;;18.80;99.90;;;;;;4973449;28;20059;-83
2021/10/07 12:32:34;;;;;;;23.65;5.25;;;18.80;99.90;;;;;;4976584;28;20050;-82
2021/10/07 12:35:02;;;;;;;;;;;18.70;99.90;;;;;;4965758;29;20055;-79
2021/10/07 12:37:31;;;;;;;14.45;4.45;;;18.70;99.90;;;;;;4967092;28;19929;-81
2021/10/07 12:40:43;;;;;;;10.57;4.15;;;18.70;99.90;;;;;;4974820;28;20057;-86
2021/10/07 12:44:09;;;;;;;15.32;4.63;;;18.80;99.90;;;;;;4891802;29;20430;-84
2021/10/07 12:47:11;;;;;;;15.05;4.50;;;18.80;99.90;;;;;;4899497;29;20064;-83
2021/10/07 12:50:28;;;;;;;32.90;6.25;;;18.80;99.90;;;;;;4876142;29;20155;-85
2021/10/07 12:53:12;;;;;;;15.18;4.78;;;18.70;99.90;;;;;;4892150;29;20085;-83
2021/10/07 13:00:40;;;;;;;23.80;5.00;;;18.10;99.90;;;;;;4788613;29;20055;-82
2021/10/07 13:03:34;;;;;;;15.25;4.50;;;19.80;99.90;;;;;;4882059;29;20059;-80
2021/10/07 13:06:13;;;;;;;;;;;;;;;;;;;;;
2021/10/07 13:08:45;;;;;;;14.90;5.53;;;18.80;99.90;;;;;;4923351;29;20078;-81
2021/10/07 13:11:27;;;;;;;10.63;4.25;;;18.80;99.90;;;;;;4903435;29;20067;-82
2021/10/07 13:13:57;;;;;;;12.80;4.28;;;18.90;99.90;;;;;;4898168;28;20059;-82
2021/10/07 13:16:27;;;;;;;8.55;3.85;;;18.80;99.90;;;;;;4976056;28;20046;-79
2021/10/07 13:19:01;;;;;;;7.07;3.58;;;18.90;99.90;;;;;;4960396;28;20047;-83
2021/10/07 13:22:01;;;;;;;9.07;3.97;;;19.10;99.90;;;;;;4960952;28;20063;-90
2021/10/07 13:26:08;;;;;;;;;;;;;;;;;;;;;
2021/10/07 13:33:11;;;;;;;11.15;4.15;;;19.40;99.90;;;;;;4865215;29;20055;-84
2021/10/07 13:36:47;;;;;;;7.75;3.00;;;19.40;99.90;;;;;;4895534;29;20056;-84
2021/10/07 13:44:19;;;;;;;14.02;4.22;;;19.30;99.90;;;;;;4853642;29;20058;-84
2021/10/07 13:48:08;;;;;;;;;;;;;;;;;;;;;
2021/10/07 13:51:58;;;;;;;10.75;3.15;;;20.10;99.90;;;;;;4849989;29;20053;-88
2021/10/07 13:55:06;;;;;;;;;;;;;;;;;;;;;
2021/10/07 13:58:26;;;;;;;14.05;3.90;;;20.50;99.90;;;;;;4923577;29;20048;-86
2021/10/07 14:01:19;;;;;;;9.57;4.10;;;20.10;99.90;;;;;;4927525;29;20072;-85
2021/10/07 14:05:34;;;;;;;9.02;3.95;;;19.80;99.90;;;;;;4886900;29;20057;-87
2021/10/07 14:13:20;;;;;;;9.27;4.28;;;19.70;99.90;;;;;;4880620;29;20045;-84
2021/10/07 14:16:09;;;;;;;12.00;4.30;;;19.50;99.90;;;;;;4905642;29;20053;-84
2021/10/07 14:23:20;;;;;;;9.30;3.80;;;19.50;99.90;;;;;;4895221;29;20060;-83
2021/10/07 14:26:22;;;;;;;8.68;3.30;;;19.40;99.90;;;;;;4895842;29;20052;-84
2021/10/07 14:29:46;;;;;;;17.83;3.75;;;19.30;99.90;;;;;;4876173;29;20059;-83
2021/10/07 14:32:29;;;;;;;10.95;3.90;;;19.40;99.90;;;;;;4887715;29;20096;-83
2021/10/07 14:35:20;;;;;;;;;;;;;;;;;;;;;
2021/10/07 14:38:39;;;;;;;;;;;;;;;;;;;;;
2021/10/07 14:41:59;;;;;;;18.10;5.03;;;20.40;99.90;;;;;;4933005;28;20062;-84
2021/10/07 14:44:39;;;;;;;12.30;4.45;;;19.00;99.90;;;;;;4976005;28;20066;-81
2021/10/07 14:47:20;;;;;;;13.23;3.05;;;19.00;99.90;;;;;;4954455;28;20425;-81
2021/10/07 14:49:55;;;;;;;13.75;4.03;;;19.00;99.90;;;;;;4970431;28;20054;-82
2021/10/07 14:52:37;;;;;;;9.20;3.42;;;18.90;99.90;;;;;;4960862;28;20059;-84
2021/10/07 14:55:11;;;;;;;9.10;3.55;;;18.80;99.90;;;;;;4954759;28;20056;-81
2021/10/07 14:58:22;;;;;;;10.35;3.78;;;19.30;99.90;;;;;;4943803;28;20055;-83
2021/10/07 15:00:56;;;;;;;11.20;4.50;;;18.70;99.90;;;;;;4944852;29;20058;-80
2021/10/07 15:03:33;;;;;;;11.30;4.03;;;18.70;99.90;;;;;;4978488;28;20035;-82
2021/10/07 15:06:15;;;;;;;9.40;3.00;;;18.70;99.90;;;;;;4962490;28;20036;-83
2021/10/07 15:09:08;;;;;;;15.25;5.93;;;18.70;99.90;;;;;;4948008;28;20059;-84
2021/10/07 15:11:39;;;;;;;9.70;3.47;;;18.70;99.90;;;;;;4944640;28;20048;-82
2021/10/07 15:14:17;;;;;;;6.85;2.58;;;18.70;99.90;;;;;;4962977;28;20062;-84
2021/10/07 15:17:07;;;;;;;11.65;3.90;;;18.60;99.90;;;;;;4960530;29;20047;-83
2021/10/07 15:20:06;;;;;;;6.53;3.00;;;18.60;99.90;;;;;;4962271;28;20032;-85
2021/10/07 15:22:39;;;;;;;9.35;3.40;;;18.60;99.90;;;;;;4960255;28;20066;-81
2021/10/07 15:25:15;;;;;;;7.18;3.67;;;18.70;99.90;;;;;;4962690;28;20061;-80
2021/10/07 15:27:43;;;;;;;14.65;3.40;;;18.60;99.90;;;;;;4948148;28;20057;-81
2021/10/07 15:30:31;;;;;;;6.55;2.10;;;18.60;99.90;;;;;;4980132;28;20074;-83
2021/10/07 15:33:07;;;;;;;7.45;2.92;;;18.70;99.90;;;;;;4960979;28;20493;-80
2021/10/07 15:35:50;;;;;;;9.27;2.55;;;18.70;99.90;;;;;;4978424;28;20043;-83
2021/10/07 15:38:45;;;;;;;8.05;4.18;;;18.70;99.90;;;;;;4963588;28;20075;-81
2021/10/07 15:41:13;;;;;;;7.28;2.67;;;18.60;99.90;;;;;;4963985;28;20065;-83
2021/10/07 15:43:43;;;;;;;7.68;2.88;;;18.70;99.90;;;;;;4944510;28;20069;-82
2021/10/07 15:46:15;;;;;;;10.50;3.08;;;18.70;99.90;;;;;;4973297;28;20043;-83
2021/10/07 15:48:47;;;;;;;11.43;2.75;;;18.70;99.90;;;;;;4966874;28;20044;-81
2021/10/07 15:51:15;;;;;;;5.82;2.92;;;18.80;99.90;;;;;;4963788;28;20051;-81
2021/10/07 15:53:43;;;;;;;4.10;2.55;;;18.70;99.90;;;;;;4950949;28;20046;-81
2021/10/07 15:56:12;;;;;;;9.85;3.13;;;18.80;99.90;;;;;;4959217;28;20056;-80
2021/10/07 15:58:47;;;;;;;10.40;3.38;;;18.80;99.90;;;;;;4960945;28;20047;-80
2021/10/07 16:01:31;;;;;;;5.72;2.40;;;17.50;99.90;;;;;;4960527;28;20043;-81
2021/10/07 16:04:00;;;;;;;8.02;3.47;;;18.80;99.90;;;;;;4972755;28;20065;-81
2021/10/07 16:06:32;;;;;;;4.95;2.40;;;18.80;99.90;;;;;;4969740;28;20074;-82
2021/10/07 16:09:03;;;;;;;10.52;3.63;;;18.80;99.90;;;;;;4960052;28;20047;-80
2021/10/07 16:11:38;;;;;;;7.10;2.83;;;18.80;99.90;;;;;;4959051;28;20142;-82
2021/10/07 16:14:14;;;;;;;5.45;2.45;;;18.80;99.90;;;;;;4971714;28;20035;-83
2021/10/07 16:16:44;;;;;;;11.57;3.13;;;18.90;99.90;;;;;;4976545;28;20046;-80
2021/10/07 16:19:19;;;;;;;6.80;2.63;;;18.70;99.90;;;;;;4949270;28;20057;-80
2021/10/07 16:21:50;;;;;;;10.38;3.10;;;18.70;99.90;;;;;;4975541;28;20047;-80
2021/10/07 16:24:25;;;;;;;7.45;2.25;;;18.70;99.90;;;;;;4959301;28;20106;-81
2021/10/07 16:26:55;;;;;;;4.78;2.47;;;18.90;99.90;;;;;;4957078;28;20054;-81
2021/10/07 16:29:29;;;;;;;5.35;2.55;;;18.60;99.90;;;;;;4958546;28;20063;-80
2021/10/07 16:32:07;;;;;;;4.85;2.60;;;18.60;99.90;;;;;;4976407;28;20118;-81
2021/10/07 16:34:47;;;;;;;;;;;18.70;99.90;;;;;;4944827;28;20066;-84
2021/10/07 16:37:27;;;;;;;6.50;2.80;;;18.60;99.90;;;;;;4973725;28;19930;-82
2021/10/07 16:40:07;;;;;;;5.47;2.53;;;18.60;99.90;;;;;;4955609;28;20061;-80
2021/10/07 16:42:37;;;;;;;5.20;2.85;;;18.60;99.90;;;;;;4977199;28;20047;-79
2021/10/07 16:45:06;;;;;;;14.50;4.13;;;18.50;99.90;;;;;;4963742;28;20050;-83
2021/10/07 16:47:36;;;;;;;10.17;2.77;;;18.60;99.90;;;;;;4960958;28;20054;-82
2021/10/07 16:50:06;;;;;;;5.75;2.75;;;18.50;99.90;;;;;;4980305;28;20424;-81
2021/10/07 16:52:38;;;;;;;9.02;3.97;;;18.60;99.90;;;;;;4962665;28;20058;-83
2021/10/07 16:55:16;;;;;;;6.50;2.60;;;18.60;99.90;;;;;;4975143;28;20075;-80
2021/10/07 16:57:44;;;;;;;6.78;2.53;;;18.60;99.90;;;;;;4959519;28;20047;-78
2021/10/07 17:00:15;;;;;;;6.15;2.63;;;18.00;99.90;;;;;;4982183;28;20058;-80
2021/10/07 17:02:49;;;;;;;;;;;18.60;99.90;;;;;;4970415;28;20051;-84
2021/10/07 17:05:23;;;;;;;6.13;2.67;;;17.70;99.90;;;;;;4963883;28;19926;-83
2021/10/07 17:07:59;;;;;;;9.98;3.35;;;18.60;99.90;;;;;;4982844;28;20047;-83
2021/10/07 17:10:35;;;;;;;6.60;3.30;;;18.70;99.90;;;;;;4960016;28;20046;-85
2021/10/07 17:13:04;;;;;;;11.20;4.22;;;18.50;99.90;;;;;;4964615;28;20057;-84
2021/10/07 17:15:42;;;;;;;5.70;3.08;;;18.50;99.90;;;;;;4967583;28;20241;-82
2021/10/07 17:18:25;;;;;;;14.27;3.63;;;18.50;99.90;;;;;;4960587;28;20130;-81
2021/10/07 17:21:11;;;;;;;7.35;3.20;;;18.50;99.90;;;;;;4978945;28;20059;-85
2021/10/07 17:23:49;;;;;;;10.93;3.20;;;18.40;99.90;;;;;;4981611;28;20045;-84
2021/10/07 17:26:29;;;;;;;7.07;3.15;;;18.50;99.90;;;;;;4966598;28;20401;-80
2021/10/07 17:28:57;;;;;;;9.63;3.35;;;18.40;99.90;;;;;;4979235;28;20061;-81
2021/10/07 17:31:32;;;;;;;5.70;2.58;;;18.40;99.90;;;;;;4977024;28;20046;-80
2021/10/07 17:34:29;;;;;;;7.45;2.38;;;18.40;99.90;;;;;;4973055;28;20066;-81
2021/10/07 17:37:25;;;;;;;5.55;2.72;;;18.30;99.90;;;;;;4964057;28;20505;-81
2021/10/07 17:40:01;;;;;;;10.27;3.47;;;18.30;99.90;;;;;;4983280;28;20063;-79
2021/10/07 17:42:35;;;;;;;6.32;3.15;;;18.30;99.90;;;;;;4980606;28;20218;-83
2021/10/07 17:45:06;;;;;;;;;;;18.30;99.90;;;;;;4984661;28;20050;-83
2021/10/07 17:47:36;;;;;;;9.43;3.42;;;18.20;99.90;;;;;;4981513;28;19926;-79
2021/10/07 17:50:48;;;;;;;7.68;3.05;;;18.30;99.90;;;;;;4975722;28;20050;-84
2021/10/07 17:53:35;;;;;;;9.13;3.17;;;18.20;99.90;;;;;;4980444;28;20043;-80
2021/10/07 17:56:46;;;;;;;5.15;3.70;;;18.20;99.90;;;;;;4980760;28;20043;-81
2021/10/07 17:59:26;;;;;;;7.28;3.25;;;18.10;99.90;;;;;;4982355;28;20043;-79
2021/10/07 18:02:20;;;;;;;9.65;3.75;;;18.10;99.90;;;;;;4976051;28;20047;-85
2021/10/07 18:05:12;;;;;;;5.00;2.92;;;18.10;99.90;;;;;;4964086;28;20046;-82
2021/10/07 18:07:41;;;;;;;7.72;3.55;;;18.10;99.90;;;;;;4982839;28;20053;-81
2021/10/07 18:10:17;;;;;;;7.50;3.15;;;18.10;99.90;;;;;;4951140;28;20055;-81
2021/10/07 18:13:16;;;;;;;14.88;4.55;;;18.00;99.90;;;;;;4969467;28;20034;-81
2021/10/07 18:16:06;;;;;;;9.13;3.33;;;18.00;99.90;;;;;;4979432;28;20507;-82
2021/10/07 18:19:00;;;;;;;12.05;4.55;;;17.10;99.90;;;;;;4923456;29;20055;-83
2021/10/07 18:21:28;;;;;;;11.27;4.80;;;17.90;99.90;;;;;;4918042;29;20052;-81
2021/10/07 18:24:16;;;;;;;9.48;4.30;;;17.90;99.90;;;;;;4924710;29;20175;-83
2021/10/07 18:26:48;;;;;;;6.43;3.78;;;17.80;99.90;;;;;;4925294;29;20055;-82
2021/10/07 18:29:30;;;;;;;12.25;4.25;;;17.80;99.90;;;;;;4927435;29;20052;-83
2021/10/07 18:33:08;;;;;;;;;;;;;;;;;;;;;
2021/10/07 18:36:15;;;;;;;8.27;3.47;;;17.80;99.90;;;;;;4919301;29;20828;-80
2021/10/07 18:38:56;;;;;;;8.27;4.55;;;17.80;99.90;;;;;;4925430;29;20056;-82
2021/10/07 18:41:24;;;;;;;11.45;3.95;;;17.70;99.90;;;;;;4941890;28;20051;-80
2021/10/07 18:44:01;;;;;;;8.35;4.47;;;17.80;99.90;;;;;;4963442;29;20058;-83
2021/10/07 18:46:30;;;;;;;9.55;4.93;;;17.80;99.90;;;;;;4962494;29;20062;-82
2021/10/07 18:49:03;;;;;;;8.95;4.50;;;17.80;99.90;;;;;;4979348;28;20155;-79
2021/10/07 18:51:34;;;;;;;8.23;4.93;;;17.80;99.90;;;;;;4962389;29;20047;-82
2021/10/07 18:54:14;;;;;;;12.55;5.57;;;17.90;99.90;;;;;;4955614;29;20066;-79
2021/10/07 18:56:44;;;;;;;11.20;4.40;;;17.90;99.90;;;;;;4961676;29;20065;-79
2021/10/07 18:59:26;;;;;;;;;;;;;;;;;;;;;
2021/10/07 19:02:00;;;;;;;6.93;3.97;;;18.30;99.90;;;;;;4937987;29;20043;-80
2021/10/07 19:04:30;;;;;;;10.23;4.10;;;17.90;99.90;;;;;;4948359;29;20051;-80
2021/10/07 19:07:08;;;;;;;10.85;4.78;;;17.90;99.90;;;;;;4963367;28;20051;-81
2021/10/07 19:09:46;;;;;;;11.30;4.70;;;17.80;99.90;;;;;;4943573;28;20062;-81
2021/10/07 19:12:30;;;;;;;8.77;4.70;;;17.80;99.90;;;;;;4960353;28;20050;-85